Time;durP1;ratioP1;P1;durP2;ratioP2;P2;SDS_P1;SDS_P2;PMS_P1;PMS_P2;Temp;Humidity;BMP_temperature;BMP_pressure;BME280_temperature;BME280_humidity;BME280_pressure;Samples;Min_cycle;Max_cycle;Signal;HPM_P1;HPM_P2
2023/10/15 00:00:16;;;;;;;1.98;0.93;;;10.30;99.90;;;;;;4987616;28;20043;-56
2023/10/15 00:02:44;;;;;;;2.25;1.00;;;10.30;99.90;;;;;;4980900;28;20038;-58
2023/10/15 00:05:15;;;;;;;5.15;1.20;;;10.20;99.90;;;;;;4991890;28;20054;-56
2023/10/15 00:07:42;;;;;;;3.53;1.20;;;10.20;99.90;;;;;;4981016;28;20038;-57
2023/10/15 00:10:14;;;;;;;4.00;1.10;;;10.20;99.90;;;;;;4987600;28;20061;-58
2023/10/15 00:12:43;;;;;;;4.70;1.10;;;10.30;99.90;;;;;;4991533;28;20677;-58
2023/10/15 00:15:23;;;;;;;4.03;1.33;;;10.20;99.90;;;;;;4991792;28;20049;-57
2023/10/15 00:17:52;;;;;;;5.53;1.27;;;10.20;99.90;;;;;;4992101;28;20084;-56
2023/10/15 00:20:20;;;;;;;3.50;0.98;;;10.10;99.90;;;;;;4984483;28;20045;-57
2023/10/15 00:22:49;;;;;;;4.05;1.48;;;10.20;99.90;;;;;;4985996;28;20050;-56
2023/10/15 00:25:20;;;;;;;3.53;0.98;;;10.10;99.90;;;;;;4989459;28;20054;-55
2023/10/15 00:27:56;;;;;;;2.50;0.80;;;10.10;99.90;;;;;;4991611;28;20034;-58
2023/10/15 00:30:34;;;;;;;5.60;1.50;;;10.00;99.90;;;;;;4990393;28;20402;-58
2023/10/15 00:33:06;;;;;;;2.67;1.17;;;10.00;99.90;;;;;;4994068;28;20046;-58
2023/10/15 00:35:34;;;;;;;3.80;1.10;;;10.00;99.90;;;;;;5004082;28;20066;-55
2023/10/15 00:38:15;;;;;;;3.13;1.10;;;10.00;99.90;;;;;;4994356;28;20050;-57
2023/10/15 00:40:42;;;;;;;2.03;1.23;;;10.00;99.90;;;;;;4987765;28;20404;-57
2023/10/15 00:43:10;;;;;;;;;;;10.00;99.90;;;;;;4993631;28;20050;-57
2023/10/15 00:45:46;;;;;;;4.13;1.20;;;9.90;99.90;;;;;;4995840;28;20390;-58
2023/10/15 00:48:22;;;;;;;6.13;1.30;;;9.90;99.90;;;;;;4993938;28;20053;-58
2023/10/15 00:50:51;;;;;;;2.47;1.10;;;9.90;99.90;;;;;;4982627;28;20038;-56
2023/10/15 00:53:25;;;;;;;1.58;1.33;;;9.90;99.90;;;;;;4993815;28;20487;-58
2023/10/15 00:56:03;;;;;;;5.15;1.00;;;9.90;99.90;;;;;;4993010;28;20559;-58
2023/10/15 01:01:20;;;;;;;6.38;1.10;;;10.00;99.90;;;;;;4993985;28;20567;-57
2023/10/15 01:03:53;;;;;;;4.55;1.00;;;10.00;99.90;;;;;;4988748;28;20074;-59
2023/10/15 01:06:30;;;;;;;3.28;1.27;;;9.90;99.90;;;;;;4991899;28;20098;-57
2023/10/15 01:09:08;;;;;;;5.75;1.20;;;9.90;99.90;;;;;;4993647;28;20041;-58
2023/10/15 01:11:58;;;;;;;3.28;1.05;;;9.90;99.90;;;;;;4987412;28;20042;-57
2023/10/15 01:14:33;;;;;;;6.93;1.40;;;9.90;99.90;;;;;;4994038;28;20043;-58
2023/10/15 01:17:00;;;;;;;2.78;0.95;;;9.90;99.90;;;;;;4992806;28;20117;-58
2023/10/15 01:19:34;;;;;;;1.90;0.77;;;9.90;99.90;;;;;;4993449;28;20038;-58
2023/10/15 01:22:03;;;;;;;5.05;0.98;;;9.80;99.90;;;;;;4993422;28;20052;-57
2023/10/15 01:24:33;;;;;;;1.52;0.93;;;9.80;99.90;;;;;;4995004;28;20056;-57
2023/10/15 01:27:11;;;;;;;1.63;0.90;;;9.80;99.90;;;;;;4993355;28;20085;-57
2023/10/15 01:29:42;;;;;;;5.63;1.00;;;9.80;99.90;;;;;;4993789;28;20042;-57
2023/10/15 01:32:10;;;;;;;1.83;0.88;;;9.80;99.90;;;;;;4993412;28;20050;-57
2023/10/15 01:34:44;;;;;;;4.03;0.88;;;9.80;99.90;;;;;;4991971;28;20045;-57
2023/10/15 01:40:01;;;;;;;3.08;0.93;;;9.80;99.90;;;;;;4988679;28;20038;-55
2023/10/15 01:45:13;;;;;;;7.68;0.88;;;9.80;99.90;;;;;;4992705;28;20042;-56
2023/10/15 01:50:15;;;;;;;7.82;1.35;;;9.80;99.90;;;;;;4993339;28;20049;-59
2023/10/15 01:52:42;;;;;;;3.13;1.00;;;9.80;99.90;;;;;;4989362;28;20047;-57
2023/10/15 01:55:12;;;;;;;2.85;0.90;;;9.80;99.90;;;;;;4994618;28;20042;-57
2023/10/15 01:57:41;;;;;;;3.20;0.90;;;9.80;99.90;;;;;;4986377;28;20070;-58
2023/10/15 02:00:32;;;;;;;3.53;1.00;;;9.80;99.90;;;;;;4988513;28;20054;-58
2023/10/15 02:03:00;;;;;;;5.30;1.10;;;9.80;99.90;;;;;;4994123;28;20056;-58
2023/10/15 02:05:40;;;;;;;3.90;1.15;;;9.80;99.90;;;;;;4994228;28;20121;-58
2023/10/15 02:08:24;;;;;;;3.17;1.00;;;9.80;99.90;;;;;;4990720;28;20069;-58
2023/10/15 02:10:52;;;;;;;3.38;1.52;;;9.80;99.90;;;;;;4990778;28;20077;-57
2023/10/15 02:13:26;;;;;;;3.05;1.10;;;9.80;99.90;;;;;;4992576;28;20046;-58
2023/10/15 02:15:58;;;;;;;3.90;0.93;;;9.70;99.90;;;;;;4992937;28;20050;-58
2023/10/15 02:18:29;;;;;;;4.15;1.00;;;9.70;99.90;;;;;;4990840;28;20495;-57
2023/10/15 02:23:24;;;;;;;3.22;1.02;;;9.70;99.90;;;;;;4992272;28;20042;-58
2023/10/15 02:26:00;;;;;;;3.97;1.08;;;9.70;99.90;;;;;;4990020;28;20052;-55
2023/10/15 02:28:31;;;;;;;8.68;1.27;;;9.70;99.90;;;;;;4993172;28;20053;-57
2023/10/15 02:31:10;;;;;;;2.83;0.95;;;9.70;99.90;;;;;;4993614;28;20049;-58
2023/10/15 02:33:38;;;;;;;4.15;1.33;;;9.80;99.90;;;;;;4992327;28;20069;-54
2023/10/15 02:36:09;;;;;;;5.32;1.10;;;9.70;99.90;;;;;;4992024;28;20074;-53
2023/10/15 02:38:37;;;;;;;5.45;1.52;;;9.70;99.90;;;;;;4993306;28;20048;-53
2023/10/15 02:41:05;;;;;;;3.45;0.80;;;9.70;99.90;;;;;;4988249;28;20054;-53
2023/10/15 02:43:36;;;;;;;3.75;1.13;;;9.70;99.90;;;;;;5006104;28;20046;-53
2023/10/15 02:46:18;;;;;;;4.40;1.20;;;9.70;99.90;;;;;;4987374;28;20093;-53
2023/10/15 02:48:47;;;;;;;3.45;1.27;;;9.70;99.90;;;;;;4991505;28;20046;-54
2023/10/15 02:51:20;;;;;;;3.22;1.30;;;9.70;99.90;;;;;;4990029;28;20096;-55
2023/10/15 02:54:01;;;;;;;8.70;1.40;;;9.70;99.90;;;;;;4992066;28;20054;-54
2023/10/15 02:56:28;;;;;;;6.15;2.78;;;9.70;99.90;;;;;;4993333;28;20070;-55
2023/10/15 02:58:55;;;;;;;;;;;9.70;99.90;;;;;;4992233;28;20054;-54
2023/10/15 03:01:25;;;;;;;6.53;1.17;;;9.70;99.90;;;;;;4991094;28;19921;-55
2023/10/15 03:03:56;;;;;;;5.10;1.27;;;9.70;99.90;;;;;;4991880;28;20050;-56
2023/10/15 03:06:31;;;;;;;7.10;1.52;;;9.70;99.90;;;;;;4993101;28;20046;-56
2023/10/15 03:08:59;;;;;;;4.10;1.40;;;9.70;99.90;;;;;;4988807;28;20586;-56
2023/10/15 03:11:33;;;;;;;6.00;1.33;;;9.80;99.90;;;;;;4991241;28;20038;-57
2023/10/15 03:14:03;;;;;;;3.45;1.15;;;9.80;99.90;;;;;;4991706;28;20070;-54
2023/10/15 03:16:35;;;;;;;4.13;1.40;;;9.80;99.90;;;;;;4991505;28;20499;-54
2023/10/15 03:19:17;;;;;;;4.90;0.95;;;9.70;99.90;;;;;;4991677;28;20054;-56
2023/10/15 03:21:44;;;;;;;7.40;1.42;;;9.70;99.90;;;;;;4992641;28;20046;-53
2023/10/15 03:24:16;;;;;;;;;;;9.60;99.90;;;;;;4990700;28;20451;-53
2023/10/15 03:26:47;;;;;;;3.90;1.20;;;9.60;99.90;;;;;;4991268;28;20364;-54
2023/10/15 03:29:14;;;;;;;6.10;1.00;;;9.50;99.90;;;;;;4988792;28;20474;-53
2023/10/15 03:31:48;;;;;;;3.25;0.93;;;9.50;99.90;;;;;;4992239;28;20062;-57
2023/10/15 03:34:21;;;;;;;3.75;1.10;;;9.40;99.90;;;;;;4992679;28;20066;-58
2023/10/15 03:36:51;;;;;;;0.95;0.73;;;9.40;99.90;;;;;;4990982;28;20612;-55
2023/10/15 03:39:44;;;;;;;5.78;1.35;;;9.40;99.90;;;;;;4991097;28;20089;-58
2023/10/15 03:42:17;;;;;;;6.03;1.13;;;9.40;99.90;;;;;;5007141;28;20496;-58
2023/10/15 03:44:47;;;;;;;4.50;1.10;;;9.50;99.90;;;;;;4989751;28;20055;-56
2023/10/15 03:47:16;;;;;;;3.28;0.80;;;9.50;99.90;;;;;;4978002;28;20050;-57
2023/10/15 03:49:44;;;;;;;5.63;1.20;;;9.50;99.90;;;;;;4982607;28;20400;-57
2023/10/15 03:52:20;;;;;;;2.33;1.00;;;9.50;99.90;;;;;;4986167;28;20057;-56
2023/10/15 03:54:48;;;;;;;3.75;0.80;;;9.50;99.90;;;;;;4986417;28;20046;-57
2023/10/15 03:57:19;;;;;;;3.60;0.80;;;9.50;99.90;;;;;;4992572;28;20066;-56
2023/10/15 03:59:55;;;;;;;3.53;0.88;;;9.50;99.90;;;;;;4992057;28;20840;-56
2023/10/15 04:02:38;;;;;;;5.15;1.35;;;9.50;99.90;;;;;;4992515;28;20396;-58
2023/10/15 04:05:13;;;;;;;6.25;0.90;;;9.50;99.90;;;;;;4985162;28;20054;-57
2023/10/15 04:07:49;;;;;;;2.15;0.88;;;9.50;99.90;;;;;;4990314;28;20042;-58
2023/10/15 04:10:23;;;;;;;5.13;1.27;;;9.50;99.90;;;;;;4992091;28;20046;-57
2023/10/15 04:12:51;;;;;;;4.28;1.00;;;9.50;99.90;;;;;;4992237;28;20153;-58
2023/10/15 04:15:18;;;;;;;4.25;1.10;;;9.40;99.90;;;;;;4985765;28;20039;-57
2023/10/15 04:17:48;;;;;;;4.13;0.90;;;9.40;99.90;;;;;;4986711;28;20042;-57
2023/10/15 04:20:15;;;;;;;4.10;1.00;;;9.40;99.90;;;;;;4992391;28;20097;-58
2023/10/15 04:22:51;;;;;;;3.20;0.70;;;9.40;99.90;;;;;;4991562;28;20070;-57
2023/10/15 04:25:26;;;;;;;3.80;0.82;;;9.30;99.90;;;;;;4991871;28;20104;-58
2023/10/15 04:27:54;;;;;;;1.95;1.00;;;9.30;99.90;;;;;;4983729;28;20053;-58
2023/10/15 04:30:22;;;;;;;4.68;0.77;;;9.30;99.90;;;;;;4992108;28;20041;-56
2023/10/15 04:32:49;;;;;;;4.13;1.02;;;9.30;99.90;;;;;;4991951;28;20061;-57
2023/10/15 04:35:25;;;;;;;2.17;0.90;;;9.30;99.90;;;;;;4988581;28;20062;-53
2023/10/15 04:37:57;;;;;;;4.57;1.02;;;9.20;99.90;;;;;;4992068;28;20042;-57
2023/10/15 04:40:24;;;;;;;4.18;1.17;;;9.20;99.90;;;;;;4991918;28;20034;-57
2023/10/15 04:42:51;;;;;;;3.03;1.02;;;9.10;99.90;;;;;;4991852;28;20038;-56
2023/10/15 04:48:02;;;;;;;7.05;1.70;;;9.20;99.90;;;;;;4983779;28;20050;-58
2023/10/15 04:50:32;;;;;;;;;;;9.20;99.90;;;;;;4992252;28;20112;-56
2023/10/15 04:53:23;;;;;;;7.25;1.63;;;9.20;99.90;;;;;;4988024;28;19976;-58
2023/10/15 04:55:52;;;;;;;4.03;1.20;;;9.20;99.90;;;;;;4991337;28;20613;-58
2023/10/15 04:58:20;;;;;;;4.13;1.42;;;9.30;99.90;;;;;;4991819;28;20495;-57
2023/10/15 05:00:48;;;;;;;3.88;1.30;;;9.30;99.90;;;;;;4983196;28;20050;-58
2023/10/15 05:03:16;;;;;;;3.45;1.90;;;9.20;99.90;;;;;;4991731;28;20510;-56
2023/10/15 05:05:43;;;;;;;;;;;9.20;99.90;;;;;;4990267;28;20403;-58
2023/10/15 05:08:11;;;;;;;3.05;1.42;;;9.10;99.90;;;;;;4977780;28;19922;-55
2023/10/15 05:10:44;;;;;;;4.47;1.55;;;9.10;99.90;;;;;;4991485;28;20038;-57
2023/10/15 05:13:12;;;;;;;3.92;1.10;;;9.10;99.90;;;;;;4985117;28;20594;-56
2023/10/15 05:15:42;;;;;;;2.13;1.10;;;9.10;99.90;;;;;;4991132;28;20064;-57
2023/10/15 05:18:10;;;;;;;4.13;1.20;;;9.10;99.90;;;;;;4991547;28;20038;-55
2023/10/15 05:20:37;;;;;;;3.83;1.05;;;9.10;99.90;;;;;;4985483;28;20050;-58
2023/10/15 05:23:04;;;;;;;2.70;1.20;;;9.00;99.90;;;;;;4992696;28;20132;-57
2023/10/15 05:25:32;;;;;;;;;;;9.00;99.90;;;;;;4980116;28;20030;-58
2023/10/15 05:28:01;;;;;;;4.50;1.40;;;9.10;99.90;;;;;;4989620;28;20001;-58
2023/10/15 05:30:28;;;;;;;3.63;1.67;;;9.10;99.90;;;;;;4979910;28;20045;-58
2023/10/15 05:32:55;;;;;;;4.68;1.15;;;9.10;99.90;;;;;;4993505;28;20043;-57
2023/10/15 05:35:24;;;;;;;3.53;1.35;;;9.10;99.90;;;;;;4981661;28;20046;-57
2023/10/15 05:37:51;;;;;;;2.80;1.38;;;9.10;99.90;;;;;;4993484;28;20046;-56
2023/10/15 05:40:20;;;;;;;2.80;0.93;;;9.10;99.90;;;;;;4993826;28;20106;-56
2023/10/15 05:42:48;;;;;;;3.75;1.42;;;9.10;99.90;;;;;;4988369;28;20052;-58
2023/10/15 05:45:15;;;;;;;2.92;1.38;;;9.10;99.90;;;;;;4991706;28;20052;-57
2023/10/15 05:47:42;;;;;;;;;;;8.90;99.90;;;;;;4995133;28;20400;-57
2023/10/15 05:50:12;;;;;;;4.72;1.20;;;8.90;99.90;;;;;;4990348;28;19921;-58
2023/10/15 05:52:39;;;;;;;4.32;1.05;;;8.90;99.90;;;;;;4988885;28;20045;-58
2023/10/15 05:55:07;;;;;;;3.72;1.27;;;8.90;99.90;;;;;;4982891;28;20074;-58
2023/10/15 05:57:34;;;;;;;2.28;1.30;;;8.90;99.90;;;;;;4985211;28;20087;-57
2023/10/15 06:00:39;;;;;;;6.20;1.08;;;9.00;99.90;;;;;;4994330;28;20419;-57
2023/10/15 06:02:55;;;;;;;5.57;1.40;;;9.10;99.90;;;;;;4987325;28;20104;-57
2023/10/15 06:05:23;;;;;;;3.40;1.23;;;9.20;99.90;;;;;;4994704;28;20792;-55
2023/10/15 06:07:49;;;;;;;4.82;1.73;;;9.20;99.90;;;;;;4994190;28;20043;-57
2023/10/15 06:10:16;;;;;;;7.03;2.38;;;9.20;99.90;;;;;;4992444;28;20133;-57
2023/10/15 06:12:44;;;;;;;7.72;3.28;;;9.30;99.90;;;;;;4991569;28;20476;-55
2023/10/15 06:15:15;;;;;;;6.65;2.13;;;9.20;99.90;;;;;;4994419;28;20034;-58
2023/10/15 06:17:46;;;;;;;3.33;1.50;;;9.20;99.90;;;;;;4986288;28;20126;-55
2023/10/15 06:20:14;;;;;;;3.67;1.00;;;9.10;99.90;;;;;;4989534;28;20053;-57
2023/10/15 06:22:45;;;;;;;5.28;1.42;;;9.10;99.90;;;;;;4993982;28;20042;-57
2023/10/15 06:25:16;;;;;;;2.03;1.00;;;9.10;99.90;;;;;;4987111;28;20042;-56
2023/10/15 06:27:44;;;;;;;4.15;1.45;;;9.20;99.90;;;;;;4988732;28;20051;-57
2023/10/15 06:30:15;;;;;;;5.07;2.20;;;9.10;99.90;;;;;;4993738;28;20117;-57
2023/10/15 06:32:49;;;;;;;4.20;1.70;;;9.10;99.90;;;;;;4993671;28;20030;-57
2023/10/15 06:35:20;;;;;;;3.13;1.63;;;9.20;99.90;;;;;;4993139;28;20442;-55
2023/10/15 06:37:48;;;;;;;3.85;1.40;;;9.20;99.90;;;;;;4993975;28;20038;-55
2023/10/15 06:40:16;;;;;;;3.28;1.60;;;9.10;99.90;;;;;;4993658;28;20117;-58
2023/10/15 06:42:51;;;;;;;4.57;1.10;;;9.20;99.90;;;;;;4993687;28;20046;-57
2023/10/15 06:45:19;;;;;;;3.83;1.20;;;9.30;99.90;;;;;;4989489;28;20070;-56
2023/10/15 06:47:49;;;;;;;5.30;1.58;;;9.30;99.90;;;;;;4982780;28;20518;-58
2023/10/15 06:50:16;;;;;;;4.82;1.85;;;9.30;99.90;;;;;;4993608;28;20042;-57
2023/10/15 06:52:43;;;;;;;6.75;1.65;;;9.30;99.90;;;;;;4985334;28;20031;-56
2023/10/15 06:55:19;;;;;;;4.97;1.70;;;9.30;99.90;;;;;;4986358;28;20039;-57
2023/10/15 06:57:47;;;;;;;5.32;2.50;;;9.30;99.90;;;;;;4990676;28;20411;-58
2023/10/15 07:00:21;;;;;;;7.38;1.52;;;9.40;99.90;;;;;;4993265;28;20057;-58
2023/10/15 07:02:49;;;;;;;2.65;1.27;;;9.40;99.90;;;;;;4993370;28;20447;-57
2023/10/15 07:05:16;;;;;;;5.85;2.03;;;9.50;99.90;;;;;;4985240;28;20509;-57
2023/10/15 07:07:45;;;;;;;3.70;1.50;;;9.50;99.90;;;;;;4991793;28;20050;-55
2023/10/15 07:10:16;;;;;;;4.68;1.38;;;9.50;99.90;;;;;;4979717;28;20093;-56
2023/10/15 07:12:47;;;;;;;4.43;1.30;;;9.60;99.90;;;;;;4992839;28;20045;-57
2023/10/15 07:15:15;;;;;;;2.63;1.17;;;9.50;99.90;;;;;;4993104;28;20042;-56
2023/10/15 07:17:43;;;;;;;;;;;9.60;99.90;;;;;;4989341;28;20445;-57
2023/10/15 07:20:14;;;;;;;;;;;9.60;99.90;;;;;;4974235;28;19929;-56
2023/10/15 07:22:53;;;;;;;2.65;1.42;;;9.50;99.90;;;;;;4978882;28;20697;-57
2023/10/15 07:25:22;;;;;;;1.83;1.00;;;9.60;99.90;;;;;;4982359;28;20030;-56
2023/10/15 07:27:49;;;;;;;4.43;1.40;;;9.70;99.90;;;;;;4992173;28;20046;-57
2023/10/15 07:30:19;;;;;;;3.55;1.40;;;9.70;99.90;;;;;;4991699;28;20397;-58
2023/10/15 07:32:48;;;;;;;3.10;1.10;;;9.60;99.90;;;;;;4989602;28;20109;-57
2023/10/15 07:35:15;;;;;;;6.45;1.30;;;9.70;99.90;;;;;;4984920;28;20042;-56
2023/10/15 07:37:49;;;;;;;7.68;1.50;;;9.70;99.90;;;;;;4984337;28;20076;-56
2023/10/15 07:40:18;;;;;;;5.28;1.58;;;9.70;99.90;;;;;;4992908;28;20046;-58
2023/10/15 07:42:50;;;;;;;2.60;1.70;;;9.80;99.90;;;;;;4991228;28;20396;-58
2023/10/15 07:45:19;;;;;;;4.22;2.00;;;9.80;99.90;;;;;;4984314;28;20046;-57
2023/10/15 07:47:46;;;;;;;5.53;1.60;;;9.90;99.90;;;;;;4992634;28;20052;-58
2023/10/15 07:50:18;;;;;;;5.18;2.13;;;9.90;99.90;;;;;;4982953;28;20034;-56
2023/10/15 07:52:48;;;;;;;7.13;2.13;;;9.90;99.90;;;;;;4990875;28;20042;-57
2023/10/15 07:55:16;;;;;;;4.93;2.20;;;9.90;99.90;;;;;;4983256;28;20491;-58
2023/10/15 07:57:43;;;;;;;8.15;2.80;;;9.90;99.90;;;;;;4988251;28;20070;-58
2023/10/15 08:00:15;;;;;;;6.03;2.33;;;9.90;99.90;;;;;;4989322;28;20483;-58
2023/10/15 08:02:42;;;;;;;9.43;2.80;;;9.90;99.90;;;;;;4987900;28;20038;-59
2023/10/15 08:05:10;;;;;;;8.00;2.30;;;10.00;99.90;;;;;;4991514;28;20057;-58
2023/10/15 08:07:37;;;;;;;5.75;2.28;;;10.00;99.90;;;;;;4991996;28;20473;-58
2023/10/15 08:10:04;;;;;;;6.50;2.80;;;10.00;99.90;;;;;;4985913;28;20369;-58
2023/10/15 08:12:32;;;;;;;11.45;5.85;;;10.10;99.90;;;;;;4988633;28;20053;-56
2023/10/15 08:14:58;;;;;;;5.75;3.08;;;10.10;99.90;;;;;;4989934;28;20038;-53
2023/10/15 08:17:26;;;;;;;8.07;3.08;;;10.10;99.90;;;;;;4990268;28;20030;-58
2023/10/15 08:19:54;;;;;;;8.65;2.15;;;10.20;99.90;;;;;;4991981;28;20132;-57
2023/10/15 08:22:21;;;;;;;7.95;2.80;;;10.20;99.90;;;;;;4986140;28;20045;-57
2023/10/15 08:24:48;;;;;;;8.93;3.25;;;10.30;99.90;;;;;;4986455;28;20046;-58
2023/10/15 08:27:15;;;;;;;3.85;2.63;;;10.20;99.90;;;;;;4991785;28;20050;-57
2023/10/15 08:29:42;;;;;;;6.30;3.15;;;10.30;99.90;;;;;;4991259;28;20038;-58
2023/10/15 08:32:20;;;;;;;7.82;3.33;;;10.30;99.90;;;;;;4991360;28;20050;-58
2023/10/15 08:34:48;;;;;;;5.50;3.22;;;10.40;99.90;;;;;;4991814;28;20044;-57
2023/10/15 08:37:15;;;;;;;5.40;3.38;;;10.40;99.90;;;;;;4984799;28;20037;-58
2023/10/15 08:39:42;;;;;;;5.53;2.95;;;10.50;99.90;;;;;;4991859;28;20049;-58
2023/10/15 08:42:13;;;;;;;6.00;3.15;;;10.60;99.90;;;;;;4991183;28;20052;-58
2023/10/15 08:44:41;;;;;;;8.38;4.32;;;10.70;99.90;;;;;;4991954;28;20050;-56
2023/10/15 08:47:13;;;;;;;;;;;10.70;99.90;;;;;;4983869;28;20392;-57
2023/10/15 08:49:46;;;;;;;5.75;3.08;;;10.70;99.90;;;;;;4983707;28;19922;-57
2023/10/15 08:52:16;;;;;;;6.68;2.95;;;10.80;99.90;;;;;;4991257;28;20050;-57
2023/10/15 08:54:44;;;;;;;8.40;4.03;;;10.90;99.90;;;;;;4994090;28;20040;-65
2023/10/15 08:57:13;;;;;;;3.70;2.35;;;10.90;99.90;;;;;;4993857;28;20042;-53
2023/10/15 08:59:43;;;;;;;7.80;2.95;;;11.00;99.90;;;;;;4982455;28;20130;-57
2023/10/15 09:02:10;;;;;;;4.28;2.30;;;11.00;99.90;;;;;;4995015;28;20051;-57
2023/10/15 09:04:37;;;;;;;3.95;2.83;;;10.90;99.90;;;;;;4993321;28;20049;-56
2023/10/15 09:07:04;;;;;;;7.07;2.53;;;11.00;99.90;;;;;;4989136;28;20057;-53
2023/10/15 09:09:32;;;;;;;3.38;1.88;;;11.20;99.90;;;;;;4995125;28;20035;-56
2023/10/15 09:12:00;;;;;;;10.15;2.00;;;11.20;99.90;;;;;;4993599;28;20057;-58
2023/10/15 09:14:42;;;;;;;4.85;1.63;;;11.30;99.90;;;;;;4992699;28;20035;-58
2023/10/15 09:17:16;;;;;;;4.28;2.25;;;11.40;99.90;;;;;;4989857;28;20048;-55
2023/10/15 09:19:46;;;;;;;4.28;1.60;;;11.40;99.90;;;;;;4994895;28;20054;-58
2023/10/15 09:22:16;;;;;;;4.25;1.42;;;11.60;99.90;;;;;;4994537;28;20108;-58
2023/10/15 09:24:44;;;;;;;5.32;1.80;;;11.80;99.90;;;;;;4993894;28;20097;-54
2023/10/15 09:27:12;;;;;;;4.35;1.80;;;11.80;99.90;;;;;;4980346;28;20043;-54
2023/10/15 09:29:40;;;;;;;2.10;1.70;;;12.00;99.90;;;;;;4986423;28;20560;-58
2023/10/15 09:32:07;;;;;;;4.70;1.65;;;12.10;99.90;;;;;;4994808;28;20056;-57
2023/10/15 09:34:38;;;;;;;4.97;1.50;;;12.30;99.90;;;;;;4993391;28;20394;-58
2023/10/15 09:37:06;;;;;;;3.10;1.23;;;12.50;99.90;;;;;;4989399;28;20046;-58
2023/10/15 09:39:38;;;;;;;3.78;1.27;;;12.60;99.90;;;;;;4986952;28;20495;-58
2023/10/15 09:42:05;;;;;;;6.80;1.58;;;12.70;99.90;;;;;;4993153;28;20435;-57
2023/10/15 09:44:32;;;;;;;3.13;1.30;;;12.80;99.90;;;;;;4988339;28;20057;-58
2023/10/15 09:47:01;;;;;;;;;;;12.80;99.90;;;;;;4988028;28;20046;-59
2023/10/15 09:49:33;;;;;;;4.60;1.30;;;12.90;99.90;;;;;;4975272;28;19926;-56
2023/10/15 09:52:05;;;;;;;4.35;1.25;;;12.70;99.90;;;;;;4988474;28;20446;-58
2023/10/15 09:54:33;;;;;;;3.83;1.05;;;12.80;99.90;;;;;;4993227;28;20035;-58
2023/10/15 09:57:06;;;;;;;5.40;1.65;;;13.00;99.90;;;;;;4994331;28;20499;-58
2023/10/15 09:59:32;;;;;;;3.53;1.50;;;13.00;99.90;;;;;;4987087;28;20053;-56
2023/10/15 10:02:06;;;;;;;3.72;1.30;;;13.20;99.90;;;;;;4990556;28;20403;-57
2023/10/15 10:04:42;;;;;;;2.05;1.15;;;13.20;99.90;;;;;;4987253;28;20057;-58
2023/10/15 10:07:23;;;;;;;4.88;1.00;;;13.20;99.90;;;;;;4994242;28;20050;-57
2023/10/15 10:10:09;;;;;;;3.20;1.17;;;13.30;99.90;;;;;;4994498;28;20039;-57
2023/10/15 10:13:02;;;;;;;5.18;1.67;;;13.30;99.90;;;;;;4986641;28;20400;-57
2023/10/15 10:15:57;;;;;;;5.00;1.20;;;13.30;99.90;;;;;;4983001;28;20043;-57
2023/10/15 10:18:27;;;;;;;4.60;1.60;;;13.20;99.90;;;;;;4993925;28;20030;-58
2023/10/15 10:20:56;;;;;;;3.30;1.20;;;13.20;99.90;;;;;;4989133;28;20046;-57
2023/10/15 10:23:23;;;;;;;6.38;1.50;;;13.20;99.90;;;;;;4993841;28;20149;-57
2023/10/15 10:26:09;;;;;;;;;;;13.20;99.90;;;;;;4986384;28;20570;-58
2023/10/15 10:28:36;;;;;;;2.15;0.80;;;13.20;99.90;;;;;;4991833;28;20024;-58
2023/10/15 10:31:06;;;;;;;2.45;1.00;;;13.20;99.90;;;;;;4990830;28;20046;-57
2023/10/15 10:33:44;;;;;;;2.55;0.77;;;13.10;99.90;;;;;;4993705;28;20038;-58
2023/10/15 10:36:21;;;;;;;4.20;0.80;;;13.20;99.90;;;;;;4994140;28;20046;-54
2023/10/15 10:39:15;;;;;;;3.42;1.00;;;13.20;99.90;;;;;;4992616;28;20042;-57
2023/10/15 10:41:42;;;;;;;5.03;1.55;;;13.20;99.90;;;;;;4987724;28;20038;-58
2023/10/15 10:44:34;;;;;;;5.15;1.50;;;13.10;99.90;;;;;;4993673;28;20193;-57
2023/10/15 10:47:18;;;;;;;1.10;0.65;;;12.90;99.90;;;;;;4993132;28;20050;-55
2023/10/15 10:49:55;;;;;;;3.75;0.73;;;12.90;99.90;;;;;;4987473;28;20118;-58
2023/10/15 10:52:35;;;;;;;4.90;1.10;;;12.80;99.90;;;;;;4992540;28;20136;-54
2023/10/15 10:55:30;;;;;;;1.52;0.88;;;12.80;99.90;;;;;;4993890;28;20364;-57
2023/10/15 10:58:00;;;;;;;2.60;1.17;;;12.70;99.90;;;;;;4993664;28;20096;-57
2023/10/15 11:00:33;;;;;;;4.90;1.02;;;12.70;99.90;;;;;;4988523;28;20055;-58
2023/10/15 11:03:01;;;;;;;3.08;0.90;;;12.60;99.90;;;;;;4986332;28;20057;-57
2023/10/15 11:05:31;;;;;;;1.40;0.40;;;12.30;99.90;;;;;;4992669;28;20056;-57
2023/10/15 11:07:58;;;;;;;1.67;0.90;;;11.60;99.90;;;;;;4988893;28;20050;-56
2023/10/15 11:10:25;;;;;;;3.17;0.70;;;11.00;99.90;;;;;;4980216;28;20034;-56
2023/10/15 11:12:52;;;;;;;4.82;0.60;;;10.50;99.90;;;;;;4992735;28;20369;-57
2023/10/15 11:15:20;;;;;;;2.38;0.50;;;10.30;99.90;;;;;;4992973;28;20048;-54
2023/10/15 11:17:57;;;;;;;2.90;0.50;;;10.20;99.90;;;;;;4987554;28;20042;-56
2023/10/15 11:20:27;;;;;;;3.63;0.50;;;10.10;99.90;;;;;;4991886;28;20046;-56
2023/10/15 11:22:54;;;;;;;2.60;0.40;;;10.10;99.90;;;;;;4977955;28;20121;-56
2023/10/15 11:25:23;;;;;;;1.42;0.47;;;10.10;99.90;;;;;;4981565;28;20491;-57
2023/10/15 11:27:51;;;;;;;0.75;0.40;;;10.10;99.90;;;;;;4986966;28;20170;-56
2023/10/15 11:30:20;;;;;;;5.57;0.55;;;9.90;99.90;;;;;;4983969;28;20129;-57
2023/10/15 11:32:47;;;;;;;1.25;0.50;;;9.70;99.90;;;;;;4991225;28;20046;-58
2023/10/15 11:35:17;;;;;;;3.40;0.60;;;9.60;99.90;;;;;;4985455;28;20118;-57
2023/10/15 11:37:50;;;;;;;1.50;0.57;;;9.50;99.90;;;;;;4991652;28;20049;-53
2023/10/15 11:40:20;;;;;;;1.33;0.40;;;9.40;99.90;;;;;;4991007;28;20050;-57
2023/10/15 11:42:50;;;;;;;4.03;0.60;;;9.30;99.90;;;;;;4992706;28;20042;-55
2023/10/15 11:45:30;;;;;;;1.13;0.50;;;9.30;99.90;;;;;;4989837;28;20050;-57
2023/10/15 11:47:58;;;;;;;2.53;0.70;;;9.50;99.90;;;;;;4992647;28;20050;-58
2023/10/15 11:50:26;;;;;;;1.35;0.52;;;9.60;99.90;;;;;;4992088;28;20038;-58
2023/10/15 11:52:56;;;;;;;1.08;0.40;;;9.80;99.90;;;;;;4984822;28;20050;-58
2023/10/15 11:55:23;;;;;;;3.40;0.52;;;9.90;99.90;;;;;;4987789;28;20122;-56
2023/10/15 11:57:50;;;;;;;0.93;0.50;;;10.00;99.90;;;;;;4986955;28;20122;-58
2023/10/15 12:00:33;;;;;;;1.85;0.50;;;10.10;99.90;;;;;;4989251;28;20038;-56
2023/10/15 12:03:01;;;;;;;1.77;0.60;;;10.30;99.90;;;;;;4981500;28;20050;-57
2023/10/15 12:05:35;;;;;;;1.83;0.60;;;10.10;99.90;;;;;;4984341;28;20042;-57
2023/10/15 12:08:03;;;;;;;0.77;0.60;;;10.10;99.90;;;;;;4990406;28;20061;-57
2023/10/15 12:10:31;;;;;;;2.25;0.70;;;10.10;99.90;;;;;;4981864;28;20146;-58
2023/10/15 12:13:02;;;;;;;2.10;0.50;;;10.00;99.90;;;;;;4989620;28;20038;-57
2023/10/15 12:15:30;;;;;;;4.28;0.77;;;9.70;99.90;;;;;;4990375;28;20061;-57
2023/10/15 12:17:58;;;;;;;1.60;0.60;;;9.50;99.90;;;;;;4990446;28;20047;-57
2023/10/15 12:20:26;;;;;;;2.78;0.90;;;9.30;99.90;;;;;;4984176;28;20515;-54
2023/10/15 12:22:54;;;;;;;6.93;1.02;;;9.10;99.90;;;;;;4983728;28;20101;-57
2023/10/15 12:25:21;;;;;;;1.38;0.70;;;8.90;99.90;;;;;;4982806;28;20157;-57
2023/10/15 12:27:48;;;;;;;;;;;8.70;99.90;;;;;;4991363;28;20046;-54
2023/10/15 12:30:24;;;;;;;5.22;1.00;;;8.50;99.90;;;;;;4990922;28;20484;-57
2023/10/15 12:32:53;;;;;;;4.10;0.93;;;8.30;99.90;;;;;;4979455;28;20399;-58
2023/10/15 12:35:21;;;;;;;3.78;0.80;;;8.20;99.90;;;;;;4991432;28;20042;-58
2023/10/15 12:38:01;;;;;;;3.05;1.00;;;8.20;99.90;;;;;;4986253;28;20041;-57
2023/10/15 12:40:31;;;;;;;4.07;0.90;;;8.10;99.90;;;;;;4981291;28;20408;-58
2023/10/15 12:43:00;;;;;;;2.53;0.85;;;8.20;99.90;;;;;;4991503;28;20461;-58
2023/10/15 12:45:27;;;;;;;5.53;1.17;;;8.10;99.90;;;;;;4981358;28;20050;-58
2023/10/15 12:47:54;;;;;;;;;;;8.10;99.90;;;;;;4985623;28;20046;-58
2023/10/15 12:50:21;;;;;;;1.67;0.70;;;8.10;99.90;;;;;;4983470;28;19922;-58
2023/10/15 12:52:48;;;;;;;3.38;0.80;;;8.10;99.90;;;;;;4988924;28;20066;-58
2023/10/15 12:55:17;;;;;;;1.75;0.77;;;8.10;99.90;;;;;;4986904;28;20034;-58
2023/10/15 12:57:46;;;;;;;2.45;0.60;;;8.10;99.90;;;;;;4986154;28;20034;-59
2023/10/15 13:00:22;;;;;;;3.35;0.57;;;8.10;99.90;;;;;;4990676;28;20122;-56
2023/10/15 13:02:50;;;;;;;2.55;0.63;;;8.10;99.90;;;;;;4989727;28;20042;-58
2023/10/15 13:05:26;;;;;;;1.75;0.50;;;8.20;99.90;;;;;;4986178;28;20112;-57
2023/10/15 13:07:54;;;;;;;3.03;0.55;;;8.30;99.90;;;;;;4987280;28;20092;-58
2023/10/15 13:10:21;;;;;;;1.15;0.60;;;8.40;99.90;;;;;;4990953;28;20053;-58
2023/10/15 13:12:49;;;;;;;3.45;0.60;;;8.50;99.90;;;;;;4990279;28;20041;-58
2023/10/15 13:15:18;;;;;;;1.60;0.73;;;8.70;99.90;;;;;;4989133;28;20046;-57
2023/10/15 13:17:45;;;;;;;4.00;0.60;;;9.00;99.90;;;;;;4988912;28;20050;-57
2023/10/15 13:20:13;;;;;;;4.25;0.50;;;9.20;99.90;;;;;;4990675;28;20483;-58
2023/10/15 13:22:42;;;;;;;0.85;0.40;;;9.40;99.90;;;;;;4987708;28;20092;-56
2023/10/15 13:25:10;;;;;;;1.45;0.35;;;9.60;99.90;;;;;;4978860;28;20847;-57
2023/10/15 13:27:40;;;;;;;1.00;0.45;;;9.80;99.90;;;;;;4986949;28;20042;-58
2023/10/15 13:30:15;;;;;;;1.02;0.32;;;9.90;99.90;;;;;;4987037;28;20050;-57
2023/10/15 13:32:43;;;;;;;1.27;0.43;;;9.90;99.90;;;;;;4989718;28;20066;-58